Etusivu
METAR-TAF:

METAR-TAF

Lentoasemat :

Clintonville, Wisconsin, Yhdysvallat

Leveyspiiri: 44-36-50N, Pituuspiiri: 088-43-53W, korkeus merenpinnasta: 251 m

Tämänhetkinen sää

Tämä raportti tehtiin 24 minuuttia sitten, kello 07.15 UTC
tyyntä
Lämpötila 0°C
Kosteus 93%
Ilmanpaine 1021 hPa
Näkyvyys: 6.4 km
Hajanaisia pilviä 200 ft:n korkeudessa
utua

METAR: KCLI 020715Z AUTO 00000KT 4SM BR SCT002 00/M01 A3014 RMK AO2 T10041013

Aika: 02:39 (07:39 UTC)


TAF: puuttuu

Säähavainnot ja -ennusteet yli 4000 lentoasemalta (METAR- ja TAF-raportit).

Käytössä olevat sääasemat on merkitty karttaan keltaisilla ja punaisilla pisteillä.

Aseta hiiri pisteen päälle nähdäksesi sääaseman nimen.

Klikkaa sitten nähdäksesi säähavainnot ja -ennusteet.

Kartan vaihtaminen: klikkaa mustalla rastilla varustettuja vihreitä pisteitä, niin voit zoomata sisään; viivalla varustettua vihreää pistettä, niin voit zoomata ulos tai vihreitä nuolia, niin pääset viereisille kartoille.


METAR-TAF: